Time;durP1;ratioP1;P1;durP2;ratioP2;P2;SDS_P1;SDS_P2;PMS_P1;PMS_P2;Temp;Humidity;BMP_temperature;BMP_pressure;BME280_temperature;BME280_humidity;BME280_pressure;Samples;Min_cycle;Max_cycle;Signal;HPM_P1;HPM_P2
2024/04/05 00:00:40;;;;;;;1.98;0.40;;;;;;;;;;5073474;28;20530;-65
2024/04/05 00:03:05;;;;;;;2.83;0.60;;;;;;;;;;5072042;28;20433;-65
2024/04/05 00:05:30;;;;;;;4.13;0.90;;;;;;;;;;5072333;28;20036;-65
2024/04/05 00:07:55;;;;;;;2.03;0.40;;;;;;;;;;5072474;28;20094;-64
2024/04/05 00:10:20;;;;;;;2.67;0.60;;;;;;;;;;5072645;28;20031;-64
2024/04/05 00:12:46;;;;;;;3.15;0.50;;;;;;;;;;5072525;28;20024;-64
2024/04/05 00:15:11;;;;;;;3.20;0.47;;;;;;;;;;5072583;28;20025;-65
2024/04/05 00:17:36;;;;;;;5.57;0.60;;;;;;;;;;5073004;28;20060;-63
2024/04/05 00:20:02;;;;;;;3.05;0.65;;;;;;;;;;5072893;28;20028;-65
2024/04/05 00:22:27;;;;;;;3.40;0.53;;;;;;;;;;5072348;28;20050;-64
2024/04/05 00:24:55;;;;;;;3.83;0.70;;;;;;;;;;5072216;28;20020;-64
2024/04/05 00:27:20;;;;;;;3.15;0.70;;;;;;;;;;4969904;28;20050;-66
2024/04/05 00:29:45;;;;;;;3.40;0.60;;;;;;;;;;4970449;28;20500;-65
2024/04/05 00:32:10;;;;;;;3.38;0.60;;;;;;;;;;4970128;28;20026;-64
2024/04/05 00:34:35;;;;;;;1.67;0.38;;;;;;;;;;4970668;28;20027;-65
2024/04/05 00:37:00;;;;;;;3.73;0.50;;;;;;;;;;4970037;28;20496;-65
2024/04/05 00:39:26;;;;;;;3.17;0.50;;;;;;;;;;4970328;28;20027;-63
2024/04/05 00:41:51;;;;;;;2.83;0.60;;;;;;;;;;4970483;28;20102;-65
2024/04/05 00:44:16;;;;;;;3.42;0.60;;;;;;;;;;4970302;28;20039;-64
2024/04/05 00:46:41;;;;;;;3.37;0.53;;;;;;;;;;4969677;28;20053;-64
2024/04/05 00:49:09;;;;;;;3.67;0.70;;;;;;;;;;4970199;28;20441;-65
2024/04/05 00:51:35;;;;;;;4.35;0.70;;;;;;;;;;5048276;28;20013;-65
2024/04/05 00:54:01;;;;;;;5.55;1.27;;;;;;;;;;5071315;28;20070;-66
2024/04/05 00:56:27;;;;;;;2.92;0.57;;;;;;;;;;5071342;28;20028;-65
2024/04/05 00:58:52;;;;;;;2.63;0.50;;;;;;;;;;5071973;28;20063;-65
2024/04/05 01:01:18;;;;;;;1.88;0.50;;;;;;;;;;5071446;28;20492;-65
2024/04/05 01:03:43;;;;;;;2.63;0.70;;;;;;;;;;5071070;28;20020;-65
2024/04/05 01:06:08;;;;;;;3.90;0.68;;;;;;;;;;5071618;28;20016;-66
2024/04/05 01:08:33;;;;;;;3.80;0.60;;;;;;;;;;5072972;28;20028;-64
2024/04/05 01:10:59;;;;;;;3.73;0.60;;;;;;;;;;5073929;28;20063;-66
2024/04/05 01:13:24;;;;;;;2.60;0.50;;;;;;;;;;5071446;28;20029;-64
2024/04/05 01:15:50;;;;;;;5.32;0.70;;;;;;;;;;5071332;28;20159;-64
2024/04/05 01:18:15;;;;;;;3.88;0.50;;;;;;;;;;5071426;28;20032;-63
2024/04/05 01:20:41;;;;;;;4.18;0.70;;;;;;;;;;5071626;28;20161;-63
2024/04/05 01:23:07;;;;;;;2.38;0.80;;;;;;;;;;5071367;28;20035;-65
2024/04/05 01:25:33;;;;;;;2.95;0.60;;;;;;;;;;5071313;28;20036;-63
2024/04/05 01:27:59;;;;;;;3.85;0.70;;;;;;;;;;5072374;28;20031;-64
2024/04/05 01:30:25;;;;;;;3.50;0.90;;;;;;;;;;5073404;28;20036;-63
2024/04/05 01:32:55;;;;;;;2.97;0.88;;;;;;;;;;4953439;28;20676;-64
2024/04/05 01:35:20;;;;;;;3.28;0.75;;;;;;;;;;4947878;28;20023;-64
2024/04/05 01:37:46;;;;;;;2.90;0.57;;;;;;;;;;4950537;28;20133;-66
2024/04/05 01:40:11;;;;;;;2.33;0.70;;;;;;;;;;4950216;28;20509;-64
2024/04/05 01:42:37;;;;;;;6.28;0.90;;;;;;;;;;4952367;28;20130;-63
2024/04/05 01:45:02;;;;;;;5.25;0.90;;;;;;;;;;4950790;28;20388;-64
2024/04/05 01:47:27;;;;;;;2.70;0.70;;;;;;;;;;4950563;28;20476;-64
2024/04/05 01:49:53;;;;;;;3.10;0.65;;;;;;;;;;4965294;28;20149;-63
2024/04/05 01:52:18;;;;;;;4.18;0.80;;;;;;;;;;4950105;28;20034;-64
2024/04/05 01:54:43;;;;;;;4.63;0.70;;;;;;;;;;4949904;28;20104;-66
2024/04/05 01:57:09;;;;;;;3.60;0.73;;;;;;;;;;4950415;28;20026;-64
2024/04/05 01:59:35;;;;;;;5.85;0.70;;;;;;;;;;4965909;28;20509;-64
2024/04/05 02:02:00;;;;;;;4.10;0.60;;;;;;;;;;4950844;28;20027;-66
2024/04/05 02:04:25;;;;;;;3.20;0.70;;;;;;;;;;4950761;28;20023;-65
2024/04/05 02:06:50;;;;;;;4.57;0.88;;;;;;;;;;4952560;28;20066;-64
2024/04/05 02:09:16;;;;;;;6.22;0.90;;;;;;;;;;4952657;28;20066;-65
2024/04/05 02:11:41;;;;;;;4.00;0.70;;;;;;;;;;4965194;28;20363;-63
2024/04/05 02:14:06;;;;;;;3.47;0.70;;;;;;;;;;4950286;28;20035;-65
2024/04/05 02:16:32;;;;;;;4.35;0.90;;;;;;;;;;4950297;28;20089;-66
2024/04/05 02:18:57;;;;;;;5.00;0.80;;;;;;;;;;4950350;28;20498;-65
2024/04/05 02:21:23;;;;;;;3.92;0.80;;;;;;;;;;4952376;28;20043;-63
2024/04/05 02:23:48;;;;;;;4.05;0.77;;;;;;;;;;4952231;28;20566;-63
2024/04/05 02:26:13;;;;;;;4.43;0.83;;;;;;;;;;4949865;28;20062;-66
2024/04/05 02:28:38;;;;;;;3.10;0.70;;;;;;;;;;4949856;28;20388;-64
2024/04/05 02:31:07;;;;;;;4.33;0.90;;;;;;;;;;4964515;28;20499;-65
2024/04/05 02:33:32;;;;;;;5.65;0.70;;;;;;;;;;4949770;28;20030;-64
2024/04/05 02:35:57;;;;;;;4.05;0.80;;;;;;;;;;4949563;28;20411;-65
2024/04/05 02:38:22;;;;;;;4.70;0.90;;;;;;;;;;4962351;28;20033;-65
2024/04/05 02:40:51;;;;;;;5.88;0.93;;;;;;;;;;4971339;28;20027;-64
2024/04/05 02:43:17;;;;;;;3.65;0.80;;;;;;;;;;4969984;28;20109;-65
2024/04/05 02:45:42;;;;;;;3.72;0.73;;;;;;;;;;4968550;28;20062;-64
2024/04/05 02:48:07;;;;;;;5.57;0.80;;;;;;;;;;4991227;28;20024;-64
2024/04/05 02:50:32;;;;;;;8.57;1.00;;;;;;;;;;5070658;28;20381;-64
2024/04/05 02:52:57;;;;;;;5.60;0.85;;;;;;;;;;5070287;28;20058;-65
2024/04/05 02:55:23;;;;;;;3.38;0.60;;;;;;;;;;5073312;28;20021;-63
2024/04/05 02:57:48;;;;;;;3.17;0.68;;;;;;;;;;5074502;28;20025;-63
2024/04/05 03:00:13;;;;;;;3.78;0.90;;;;;;;;;;5074246;28;20028;-65
2024/04/05 03:02:38;;;;;;;3.80;0.88;;;;;;;;;;5074202;28;20078;-64
2024/04/05 03:05:04;;;;;;;3.60;0.75;;;;;;;;;;5073967;28;20586;-63
2024/04/05 03:07:29;;;;;;;4.40;0.80;;;;;;;;;;5073655;28;20024;-65
2024/04/05 03:09:54;;;;;;;3.38;0.70;;;;;;;;;;5073718;28;20459;-64
2024/04/05 03:12:19;;;;;;;6.37;0.80;;;;;;;;;;5073356;28;20104;-66
2024/04/05 03:14:45;;;;;;;4.28;0.68;;;;;;;;;;5027451;28;20499;-64
2024/04/05 03:17:11;;;;;;;5.07;0.93;;;;;;;;;;4952346;28;20107;-64
2024/04/05 03:19:36;;;;;;;5.10;0.90;;;;;;;;;;4952165;28;20103;-63
2024/04/05 03:22:03;;;;;;;4.17;0.70;;;;;;;;;;4952071;28;20102;-66
2024/04/05 03:24:28;;;;;;;5.43;0.70;;;;;;;;;;4952301;28;20806;-65
2024/04/05 03:26:53;;;;;;;5.80;0.80;;;;;;;;;;4952299;28;20023;-64
2024/04/05 03:29:18;;;;;;;3.08;0.75;;;;;;;;;;4952642;28;20124;-64
2024/04/05 03:31:44;;;;;;;5.43;0.90;;;;;;;;;;4952485;28;20023;-64
2024/04/05 03:34:09;;;;;;;4.63;0.98;;;;;;;;;;4952265;28;20027;-64
2024/04/05 03:36:34;;;;;;;5.13;0.83;;;;;;;;;;4951948;28;20034;-65
2024/04/05 03:39:01;;;;;;;3.83;0.80;;;;;;;;;;4951747;28;20107;-66
2024/04/05 03:41:29;;;;;;;5.38;0.88;;;;;;;;;;4952318;28;20106;-64
2024/04/05 03:43:54;;;;;;;4.72;1.10;;;;;;;;;;4951764;28;20015;-66
2024/04/05 03:46:19;;;;;;;6.95;1.13;;;;;;;;;;4966410;28;20019;-65
2024/04/05 03:48:45;;;;;;;3.97;0.80;;;;;;;;;;5042677;28;20052;-64
2024/04/05 03:51:10;;;;;;;7.15;0.90;;;;;;;;;;5072474;28;20107;-64
2024/04/05 03:53:36;;;;;;;6.90;1.10;;;;;;;;;;5076017;28;20384;-64
2024/04/05 03:56:01;;;;;;;4.07;0.90;;;;;;;;;;5081745;28;20052;-65
2024/04/05 03:58:26;;;;;;;5.43;1.08;;;;;;;;;;5084548;28;20032;-66
2024/04/05 04:00:51;;;;;;;7.75;1.30;;;;;;;;;;5084404;28;20042;-64
2024/04/05 04:03:17;;;;;;;7.28;0.80;;;;;;;;;;4990037;28;20018;-63
2024/04/05 04:05:42;;;;;;;4.07;0.70;;;;;;;;;;4986426;28;20414;-64
2024/04/05 04:08:07;;;;;;;6.77;1.13;;;;;;;;;;4976788;28;20084;-66
2024/04/05 04:10:32;;;;;;;11.50;1.55;;;;;;;;;;4976873;28;20037;-64
2024/04/05 04:12:58;;;;;;;8.60;1.00;;;;;;;;;;4974661;28;20042;-64
2024/04/05 04:15:23;;;;;;;10.65;1.45;;;;;;;;;;4971031;28;20084;-64
2024/04/05 04:17:48;;;;;;;8.80;1.50;;;;;;;;;;4971210;28;20359;-68
2024/04/05 04:20:13;;;;;;;10.85;1.23;;;;;;;;;;4970729;28;20035;-62
2024/04/05 04:22:38;;;;;;;7.87;1.10;;;;;;;;;;4970905;28;20070;-63
2024/04/05 04:25:04;;;;;;;5.30;1.10;;;;;;;;;;4970248;28;20023;-63
2024/04/05 04:27:29;;;;;;;4.60;1.08;;;;;;;;;;4970884;28;20030;-65
2024/04/05 04:29:58;;;;;;;9.77;1.25;;;;;;;;;;4970540;28;20022;-64
2024/04/05 04:32:24;;;;;;;8.00;1.20;;;;;;;;;;4970463;28;20031;-63
2024/04/05 04:34:49;;;;;;;9.40;1.52;;;;;;;;;;4970101;28;20471;-64
2024/04/05 04:37:16;;;;;;;8.52;1.20;;;;;;;;;;4970776;28;20027;-64
2024/04/05 04:39:41;;;;;;;5.28;0.90;;;;;;;;;;4969176;28;20023;-65
2024/04/05 04:42:06;;;;;;;6.55;1.13;;;;;;;;;;4970683;28;20042;-64
2024/04/05 04:44:32;;;;;;;5.70;1.10;;;;;;;;;;4970816;28;20033;-63
2024/04/05 04:46:57;;;;;;;4.63;0.97;;;;;;;;;;4984494;28;20070;-64
2024/04/05 04:49:22;;;;;;;5.35;0.80;;;;;;;;;;5071740;28;20035;-64
2024/04/05 04:51:47;;;;;;;6.45;1.02;;;;;;;;;;5071778;28;20081;-65
2024/04/05 04:54:13;;;;;;;6.95;1.13;;;;;;;;;;5071407;28;20020;-64
2024/04/05 04:56:38;;;;;;;4.90;1.08;;;;;;;;;;5071086;28;20388;-64
2024/04/05 04:59:07;;;;;;;7.35;1.10;;;;;;;;;;5071349;28;20033;-64
2024/04/05 05:01:32;;;;;;;5.32;1.20;;;;;;;;;;5071658;28;20036;-65
2024/04/05 05:03:57;;;;;;;7.05;1.30;;;;;;;;;;5071426;28;20020;-64
2024/04/05 05:06:22;;;;;;;6.03;1.60;;;;;;;;;;5071350;28;20097;-64
2024/04/05 05:08:48;;;;;;;6.97;1.27;;;;;;;;;;4983586;28;20015;-63
2024/04/05 05:11:13;;;;;;;8.63;1.30;;;;;;;;;;4950986;28;20104;-64
2024/04/05 05:13:38;;;;;;;6.73;1.33;;;;;;;;;;4950724;28;20035;-65
2024/04/05 05:16:03;;;;;;;6.22;1.30;;;;;;;;;;4949620;28;20422;-66
2024/04/05 05:18:30;;;;;;;5.07;1.30;;;;;;;;;;4950367;28;20035;-65
2024/04/05 05:20:55;;;;;;;6.13;1.17;;;;;;;;;;4950668;28;20497;-64
2024/04/05 05:23:20;;;;;;;8.17;1.40;;;;;;;;;;4950482;28;20483;-64
2024/04/05 05:25:45;;;;;;;6.30;1.10;;;;;;;;;;4950413;28;20426;-64
2024/04/05 05:28:11;;;;;;;7.43;1.20;;;;;;;;;;4951086;28;20039;-64
2024/04/05 05:30:36;;;;;;;6.03;1.13;;;;;;;;;;4951436;28;20084;-63
2024/04/05 05:33:02;;;;;;;7.53;1.30;;;;;;;;;;4951021;28;20015;-65
2024/04/05 05:35:27;;;;;;;7.80;1.63;;;;;;;;;;4951039;28;20997;-64
2024/04/05 05:37:52;;;;;;;6.47;1.20;;;;;;;;;;4950367;28;20027;-64
2024/04/05 05:40:18;;;;;;;6.53;1.50;;;;;;;;;;4964861;28;20058;-64
2024/04/05 05:42:43;;;;;;;7.28;1.40;;;;;;;;;;4950234;28;20019;-65
2024/04/05 05:45:08;;;;;;;6.90;1.40;;;;;;;;;;4949890;28;20177;-64
2024/04/05 05:47:33;;;;;;;6.70;1.10;;;;;;;;;;5022963;28;20017;-65
2024/04/05 05:49:58;;;;;;;8.85;1.70;;;;;;;;;;5070975;28;20063;-64
2024/04/05 05:52:24;;;;;;;10.15;1.90;;;;;;;;;;5070930;28;20031;-64
2024/04/05 05:54:49;;;;;;;9.00;1.48;;;;;;;;;;5070954;28;20396;-65
2024/04/05 05:57:15;;;;;;;8.55;1.42;;;;;;;;;;5071930;28;20440;-63
2024/04/05 05:59:40;;;;;;;9.63;1.55;;;;;;;;;;5073245;28;20025;-65
2024/04/05 06:02:05;;;;;;;6.50;1.45;;;;;;;;;;5074228;28;20084;-63
2024/04/05 06:04:30;;;;;;;7.83;1.40;;;;;;;;;;4979602;28;20061;-65
2024/04/05 06:06:56;;;;;;;8.23;1.40;;;;;;;;;;4980890;28;20464;-66
2024/04/05 06:09:21;;;;;;;9.05;1.58;;;;;;;;;;4979294;28;20124;-65
2024/04/05 06:11:47;;;;;;;9.00;1.40;;;;;;;;;;4974511;28;20047;-65
2024/04/05 06:14:13;;;;;;;8.65;1.40;;;;;;;;;;4971975;28;20035;-65
2024/04/05 06:16:38;;;;;;;9.25;1.83;;;;;;;;;;4970700;28;20023;-64
2024/04/05 06:19:03;;;;;;;9.52;1.38;;;;;;;;;;4972267;28;20088;-64
2024/04/05 06:21:28;;;;;;;8.88;1.40;;;;;;;;;;4975262;28;20023;-64
2024/04/05 06:23:53;;;;;;;11.68;1.40;;;;;;;;;;4972616;28;20091;-65
2024/04/05 06:26:18;;;;;;;7.23;1.30;;;;;;;;;;4975236;28;20076;-64
2024/04/05 06:28:43;;;;;;;5.87;1.23;;;;;;;;;;4977504;28;20054;-64
2024/04/05 06:31:09;;;;;;;6.50;1.27;;;;;;;;;;4977871;28;20035;-64
2024/04/05 06:33:34;;;;;;;6.57;1.58;;;;;;;;;;4975318;28;20093;-65
2024/04/05 06:36:00;;;;;;;7.68;1.40;;;;;;;;;;4973550;28;20031;-65
2024/04/05 06:38:26;;;;;;;9.73;1.30;;;;;;;;;;4973147;28;20031;-65
2024/04/05 06:40:54;;;;;;;7.68;1.40;;;;;;;;;;4972574;28;20488;-64
2024/04/05 06:43:19;;;;;;;8.55;1.30;;;;;;;;;;4972681;28;20035;-65
2024/04/05 06:45:51;;;;;;;5.63;1.30;;;;;;;;;;4972938;28;20019;-66
2024/04/05 06:48:16;;;;;;;;;;;;;;;;;;5075060;28;20036;-63
2024/04/05 06:50:42;;;;;;;6.93;1.38;;;;;;;;;;5073963;28;19990;-64
2024/04/05 06:53:07;;;;;;;8.53;1.40;;;;;;;;;;5073875;28;20016;-65
2024/04/05 06:55:32;;;;;;;8.00;1.48;;;;;;;;;;5073953;28;20257;-65
2024/04/05 06:58:00;;;;;;;5.95;1.17;;;;;;;;;;5074010;28;20028;-66
2024/04/05 07:00:25;;;;;;;8.88;1.40;;;;;;;;;;5074016;28;20033;-64
2024/04/05 07:02:50;;;;;;;8.37;1.70;;;;;;;;;;5074019;28;20365;-64
2024/04/05 07:05:16;;;;;;;10.45;1.58;;;;;;;;;;4976461;28;20047;-65
2024/04/05 07:07:41;;;;;;;8.88;1.70;;;;;;;;;;4976073;28;20030;-65
2024/04/05 07:10:07;;;;;;;6.87;1.50;;;;;;;;;;4975759;28;20076;-66
2024/04/05 07:12:32;;;;;;;;;;;;;;;;;;4973903;28;20030;-64
2024/04/05 07:14:57;;;;;;;5.78;1.20;;;;;;;;;;4970797;28;19921;-64
2024/04/05 07:17:23;;;;;;;9.73;1.50;;;;;;;;;;4972122;28;20390;-64
2024/04/05 07:19:48;;;;;;;5.43;1.20;;;;;;;;;;4972153;28;20062;-64
2024/04/05 07:22:15;;;;;;;6.97;1.30;;;;;;;;;;4991118;28;20042;-65
2024/04/05 07:24:41;;;;;;;6.55;1.20;;;;;;;;;;4991173;28;20542;-63
2024/04/05 07:27:06;;;;;;;7.47;1.30;;;;;;;;;;4990758;28;20121;-65
2024/04/05 07:29:31;;;;;;;6.80;1.40;;;;;;;;;;4990662;28;20026;-65
2024/04/05 07:31:58;;;;;;;9.23;1.90;;;;;;;;;;4990699;28;20019;-64
2024/04/05 07:34:23;;;;;;;9.27;1.50;;;;;;;;;;4989449;28;20030;-64
2024/04/05 07:36:48;;;;;;;9.43;1.60;;;;;;;;;;4990589;28;20086;-66
2024/04/05 07:39:13;;;;;;;7.60;1.50;;;;;;;;;;4989757;28;20018;-66
2024/04/05 07:41:39;;;;;;;5.80;1.50;;;;;;;;;;4990433;28;20046;-66
2024/04/05 07:44:04;;;;;;;5.18;1.15;;;;;;;;;;4992075;28;20579;-64
2024/04/05 07:46:29;;;;;;;9.80;1.40;;;;;;;;;;5045117;28;20012;-64
2024/04/05 07:48:54;;;;;;;8.13;1.53;;;;;;;;;;5072821;28;20024;-67
2024/04/05 07:51:20;;;;;;;7.10;1.27;;;;;;;;;;5073082;28;20048;-66
2024/04/05 07:53:45;;;;;;;6.55;1.33;;;;;;;;;;5071493;28;20111;-66
2024/04/05 07:56:10;;;;;;;6.07;1.30;;;;;;;;;;5072386;28;20484;-65
2024/04/05 07:58:35;;;;;;;6.90;1.63;;;;;;;;;;5072808;28;20017;-64
2024/04/05 08:01:02;;;;;;;6.93;1.30;;;;;;;;;;5072426;28;20100;-66
2024/04/05 08:03:27;;;;;;;7.38;1.30;;;;;;;;;;5070920;28;20031;-63
2024/04/05 08:05:52;;;;;;;9.20;1.60;;;;;;;;;;4993889;28;20106;-64
2024/04/05 08:08:17;;;;;;;10.35;1.60;;;;;;;;;;4970944;28;20483;-65
2024/04/05 08:10:43;;;;;;;12.30;1.85;;;;;;;;;;4970371;28;20115;-65
2024/04/05 08:13:08;;;;;;;6.15;1.58;;;;;;;;;;4971055;28;20062;-65
2024/04/05 08:15:33;;;;;;;7.97;1.53;;;;;;;;;;4971408;28;20467;-64
2024/04/05 08:17:58;;;;;;;6.20;1.50;;;;;;;;;;4971808;28;20033;-64
2024/04/05 08:20:24;;;;;;;7.75;1.60;;;;;;;;;;4971891;28;20027;-65
2024/04/05 08:22:49;;;;;;;7.57;1.77;;;;;;;;;;4971564;28;20615;-66
2024/04/05 08:25:14;;;;;;;5.90;1.15;;;;;;;;;;4971728;28;20049;-64
2024/04/05 08:27:43;;;;;;;6.83;1.80;;;;;;;;;;4971705;28;20023;-67
2024/04/05 08:30:09;;;;;;;10.60;1.88;;;;;;;;;;4972207;28;20122;-66
2024/04/05 08:32:34;;;;;;;6.65;1.52;;;;;;;;;;4973636;28;20023;-65
2024/04/05 08:35:00;;;;;;;5.38;1.25;;;;;;;;;;4974275;28;20053;-65
2024/04/05 08:37:25;;;;;;;7.80;1.77;;;;;;;;;;4977535;28;20022;-65
2024/04/05 08:39:50;;;;;;;7.70;1.80;;;;;;;;;;4980775;28;20038;-65
2024/04/05 08:42:16;;;;;;;9.53;1.70;;;;;;;;;;4982374;28;20027;-65
2024/04/05 08:44:47;;;;;;;7.95;1.85;;;;;;;;;;4994447;28;20084;-65
2024/04/05 08:47:12;;;;;;;8.43;1.80;;;;;;;;;;5085645;28;20017;-64
2024/04/05 08:49:37;;;;;;;7.03;1.70;;;;;;;;;;5088858;28;20515;-65
2024/04/05 08:52:03;;;;;;;6.95;1.27;;;;;;;;;;5086199;28;20039;-64
2024/04/05 08:54:31;;;;;;;9.30;1.92;;;;;;;;;;5082912;28;20037;-64
2024/04/05 08:56:58;;;;;;;11.63;1.58;;;;;;;;;;5080351;28;20083;-66
2024/04/05 08:59:28;;;;;;;8.50;1.85;;;;;;;;;;5077950;28;20381;-64
2024/04/05 09:01:54;;;;;;;9.52;1.70;;;;;;;;;;4981794;28;20027;-63
2024/04/05 09:04:20;;;;;;;8.13;1.67;;;;;;;;;;4955700;28;20031;-67
2024/04/05 09:06:45;;;;;;;7.68;2.00;;;;;;;;;;4973004;28;20030;-64
2024/04/05 09:09:10;;;;;;;10.17;1.87;;;;;;;;;;4972070;28;20414;-63
2024/04/05 09:11:37;;;;;;;7.22;1.40;;;;;;;;;;4970481;28;20113;-64
2024/04/05 09:14:03;;;;;;;8.85;1.67;;;;;;;;;;4969913;28;20031;-65
2024/04/05 09:16:29;;;;;;;5.45;1.52;;;;;;;;;;4970111;28;20023;-65
2024/04/05 09:19:08;;;;;;;8.88;1.60;;;;;;;;;;4970857;28;20014;-65
2024/04/05 09:21:33;;;;;;;6.80;1.42;;;;;;;;;;4971847;28;20411;-66
2024/04/05 09:23:58;;;;;;;8.10;1.40;;;;;;;;;;4969904;28;20027;-66
2024/04/05 09:26:26;;;;;;;7.20;1.90;;;;;;;;;;4970247;28;20014;-65
2024/04/05 09:28:58;;;;;;;5.60;1.48;;;;;;;;;;4969931;28;20466;-64
2024/04/05 09:31:24;;;;;;;5.88;1.20;;;;;;;;;;4968664;28;20030;-64
2024/04/05 09:33:50;;;;;;;7.53;1.20;;;;;;;;;;4970022;28;20037;-65
2024/04/05 09:36:17;;;;;;;9.00;1.80;;;;;;;;;;4970719;28;20023;-66
2024/04/05 09:38:42;;;;;;;10.35;1.48;;;;;;;;;;4969534;28;20018;-65
2024/04/05 09:41:10;;;;;;;5.95;1.42;;;;;;;;;;4969558;28;20061;-64
2024/04/05 09:43:36;;;;;;;7.03;1.42;;;;;;;;;;4969725;28;20064;-66
2024/04/05 09:46:04;;;;;;;5.10;1.17;;;;;;;;;;5057041;28;20107;-64
2024/04/05 09:48:32;;;;;;;7.97;1.30;;;;;;;;;;5071396;28;20120;-66
2024/04/05 09:50:59;;;;;;;6.18;1.60;;;;;;;;;;5071371;28;20062;-63
2024/04/05 09:53:25;;;;;;;6.93;1.30;;;;;;;;;;5070607;28;20487;-64
2024/04/05 09:55:52;;;;;;;6.85;1.42;;;;;;;;;;5070528;28;20012;-66
2024/04/05 09:58:19;;;;;;;6.72;1.38;;;;;;;;;;5070964;28;20017;-65
2024/04/05 10:00:46;;;;;;;5.65;1.23;;;;;;;;;;5070780;28;20028;-65
2024/04/05 10:03:12;;;;;;;5.45;1.13;;;;;;;;;;5072059;28;20525;-64
2024/04/05 10:05:37;;;;;;;;;;;;;;;;;;5074715;28;20036;-65
2024/04/05 10:08:13;;;;;;;7.85;1.30;;;;;;;;;;4971720;28;19910;-65
2024/04/05 10:10:39;;;;;;;5.07;1.25;;;;;;;;;;4953217;28;20177;-64
2024/04/05 10:13:17;;;;;;;7.20;1.45;;;;;;;;;;4953261;28;20023;-64
2024/04/05 10:15:55;;;;;;;7.20;1.33;;;;;;;;;;4952592;28;20027;-65
2024/04/05 10:18:27;;;;;;;4.53;1.00;;;;;;;;;;4953070;28;20034;-65
2024/04/05 10:20:52;;;;;;;;;;;;;;;;;;4953623;28;20030;-66
2024/04/05 10:23:18;;;;;;;9.43;1.63;;;;;;;;;;4952653;28;19906;-64
2024/04/05 10:25:43;;;;;;;7.55;1.10;;;;;;;;;;4952722;28;20500;-64
2024/04/05 10:28:08;;;;;;;5.32;1.02;;;;;;;;;;4953193;28;20039;-66
2024/04/05 10:30:33;;;;;;;7.30;1.13;;;;;;;;;;4952886;28;20024;-66
2024/04/05 10:32:59;;;;;;;5.53;1.50;;;;;;;;;;4952816;28;20023;-65
2024/04/05 10:35:24;;;;;;;5.20;1.00;;;;;;;;;;4952696;28;20035;-65
2024/04/05 10:37:57;;;;;;;6.22;1.10;;;;;;;;;;4953224;28;20027;-64
2024/04/05 10:40:23;;;;;;;4.25;0.80;;;;;;;;;;4952990;28;20499;-63
2024/04/05 10:42:48;;;;;;;5.07;1.27;;;;;;;;;;4953069;28;20140;-64
2024/04/05 10:45:17;;;;;;;4.40;0.83;;;;;;;;;;5043320;28;20104;-65
2024/04/05 10:47:54;;;;;;;4.40;1.13;;;;;;;;;;5073990;28;20538;-66
2024/04/05 10:50:21;;;;;;;5.55;1.15;;;;;;;;;;5073812;28;20035;-66
2024/04/05 10:52:46;;;;;;;4.95;1.20;;;;;;;;;;5073546;28;20020;-65
2024/04/05 10:55:12;;;;;;;5.50;1.40;;;;;;;;;;5072432;28;20445;-65
2024/04/05 10:57:37;;;;;;;5.00;1.10;;;;;;;;;;5078350;28;20013;-64
2024/04/05 11:00:04;;;;;;;9.53;1.33;;;;;;;;;;5085085;28;20021;-66
2024/04/05 11:02:29;;;;;;;6.72;1.00;;;;;;;;;;5088202;28;20092;-65
2024/04/05 11:05:06;;;;;;;5.53;1.00;;;;;;;;;;5090574;28;20054;-65
2024/04/05 11:07:31;;;;;;;5.00;1.10;;;;;;;;;;5063802;28;20022;-64
2024/04/05 11:09:56;;;;;;;6.23;1.00;;;;;;;;;;4974659;28;20118;-66
2024/04/05 11:12:22;;;;;;;6.45;1.02;;;;;;;;;;4975902;28;20018;-66
2024/04/05 11:14:47;;;;;;;4.50;1.07;;;;;;;;;;4989629;28;20034;-63
2024/04/05 11:17:15;;;;;;;4.47;1.10;;;;;;;;;;4991183;28;20030;-64
2024/04/05 11:19:41;;;;;;;5.28;1.00;;;;;;;;;;4990994;28;20054;-67
2024/04/05 11:22:06;;;;;;;6.63;0.80;;;;;;;;;;4991109;28;20068;-65
2024/04/05 11:24:31;;;;;;;4.38;1.00;;;;;;;;;;4990770;28;20051;-65
2024/04/05 11:26:56;;;;;;;3.58;0.70;;;;;;;;;;4987822;28;20062;-65
2024/04/05 11:29:21;;;;;;;4.38;1.02;;;;;;;;;;4971472;28;20041;-65
2024/04/05 11:31:48;;;;;;;2.93;0.80;;;;;;;;;;4970109;28;20026;-65
2024/04/05 11:34:13;;;;;;;3.80;0.70;;;;;;;;;;4971703;28;20031;-65
2024/04/05 11:36:38;;;;;;;4.67;0.80;;;;;;;;;;4970978;28;20159;-64
2024/04/05 11:39:04;;;;;;;4.50;0.90;;;;;;;;;;4971274;28;20023;-66
2024/04/05 11:41:29;;;;;;;5.07;0.93;;;;;;;;;;4971221;28;20033;-67
2024/04/05 11:43:54;;;;;;;5.50;1.00;;;;;;;;;;5035761;28;20362;-66
2024/04/05 11:46:19;;;;;;;4.70;0.80;;;;;;;;;;5072041;28;20031;-68
2024/04/05 11:48:45;;;;;;;3.97;0.80;;;;;;;;;;5073064;28;20054;-66
2024/04/05 11:51:10;;;;;;;3.88;0.90;;;;;;;;;;5073018;28;20029;-66
2024/04/05 11:53:35;;;;;;;3.47;0.85;;;;;;;;;;5072330;28;20028;-67
2024/04/05 11:56:03;;;;;;;3.70;0.80;;;;;;;;;;5074085;28;20066;-66
2024/04/05 11:58:31;;;;;;;3.25;0.70;;;;;;;;;;5072819;28;20530;-63
2024/04/05 12:00:56;;;;;;;4.18;1.00;;;;;;;;;;5072760;28;20027;-67
2024/04/05 12:03:21;;;;;;;3.30;0.68;;;;;;;;;;5071268;28;20016;-66
2024/04/05 12:05:46;;;;;;;5.10;1.13;;;;;;;;;;5072696;28;20048;-66
2024/04/05 12:08:12;;;;;;;5.15;0.90;;;;;;;;;;5061477;28;20434;-67
2024/04/05 12:10:38;;;;;;;2.25;0.60;;;;;;;;;;4951861;28;20027;-65
2024/04/05 12:13:03;;;;;;;3.22;0.73;;;;;;;;;;4951090;28;20023;-65
2024/04/05 12:15:28;;;;;;;3.45;1.00;;;;;;;;;;4951757;28;20042;-65
2024/04/05 12:17:54;;;;;;;3.88;0.60;;;;;;;;;;4951801;28;20133;-65
2024/04/05 12:20:19;;;;;;;2.67;0.50;;;;;;;;;;4952027;28;20384;-64
2024/04/05 12:22:45;;;;;;;5.50;0.80;;;;;;;;;;4966644;28;20081;-66
2024/04/05 12:25:10;;;;;;;2.63;0.70;;;;;;;;;;4951445;28;20084;-65
2024/04/05 12:27:36;;;;;;;3.17;0.70;;;;;;;;;;4952774;28;20035;-64
2024/04/05 12:30:02;;;;;;;3.47;0.60;;;;;;;;;;4952001;28;20028;-65
2024/04/05 12:32:27;;;;;;;4.93;1.20;;;;;;;;;;4952423;28;20026;-64
2024/04/05 12:34:53;;;;;;;2.70;0.70;;;;;;;;;;4952036;28;20093;-64
2024/04/05 12:37:21;;;;;;;3.95;0.70;;;;;;;;;;4953547;28;20118;-64
2024/04/05 12:39:48;;;;;;;2.90;0.63;;;;;;;;;;4952528;28;20534;-64
2024/04/05 12:42:13;;;;;;;2.88;0.70;;;;;;;;;;4976618;28;20017;-68
2024/04/05 12:44:38;;;;;;;2.60;0.60;;;;;;;;;;5073302;28;20755;-66
2024/04/05 12:47:04;;;;;;;4.65;0.77;;;;;;;;;;5072373;28;20077;-65
2024/04/05 12:49:29;;;;;;;2.70;0.50;;;;;;;;;;5072682;28;20024;-64
2024/04/05 12:51:54;;;;;;;4.47;0.80;;;;;;;;;;5072172;28;20079;-65
2024/04/05 12:54:19;;;;;;;2.90;0.60;;;;;;;;;;5072058;28;20024;-67
2024/04/05 12:56:44;;;;;;;3.03;0.43;;;;;;;;;;5071943;28;20020;-67
2024/04/05 12:59:10;;;;;;;3.47;0.70;;;;;;;;;;5071983;28;20081;-65
2024/04/05 13:01:35;;;;;;;3.30;0.50;;;;;;;;;;5072088;28;20068;-65
2024/04/05 13:04:00;;;;;;;3.63;0.60;;;;;;;;;;5072513;28;20021;-66
2024/04/05 13:06:25;;;;;;;3.50;0.60;;;;;;;;;;5073993;28;20485;-64
2024/04/05 13:08:50;;;;;;;2.20;0.40;;;;;;;;;;5073590;28;20036;-66
2024/04/05 13:11:16;;;;;;;3.17;0.70;;;;;;;;;;4975045;28;20115;-65
2024/04/05 13:13:42;;;;;;;3.92;0.70;;;;;;;;;;4971730;28;20046;-65
2024/04/05 13:16:08;;;;;;;2.28;0.60;;;;;;;;;;4973470;28;20022;-66
2024/04/05 13:18:33;;;;;;;2.03;0.75;;;;;;;;;;4976910;28;20010;-66
2024/04/05 13:21:05;;;;;;;2.42;0.70;;;;;;;;;;4978340;28;20114;-65
2024/04/05 13:23:37;;;;;;;2.40;0.55;;;;;;;;;;4980944;28;20031;-70
2024/04/05 13:26:02;;;;;;;;;;;;;;;;;;4980739;28;20042;-69
2024/04/05 13:28:27;;;;;;;2.17;0.60;;;;;;;;;;4970706;28;19910;-65
2024/04/05 13:30:56;;;;;;;2.27;0.70;;;;;;;;;;4969879;28;20102;-67
2024/04/05 13:33:21;;;;;;;2.47;0.70;;;;;;;;;;4969464;28;20023;-66
2024/04/05 13:35:47;;;;;;;2.95;0.50;;;;;;;;;;4969416;28;20015;-64
2024/04/05 13:38:12;;;;;;;3.53;0.80;;;;;;;;;;4968808;28;20034;-65
2024/04/05 13:40:37;;;;;;;3.38;0.52;;;;;;;;;;4969236;28;20019;-66
2024/04/05 13:43:02;;;;;;;3.58;0.73;;;;;;;;;;5051265;28;20150;-65
2024/04/05 13:45:28;;;;;;;3.03;0.67;;;;;;;;;;5070595;28;20029;-66
2024/04/05 13:47:53;;;;;;;4.65;1.30;;;;;;;;;;5071130;28;20490;-67
2024/04/05 13:50:18;;;;;;;5.93;1.35;;;;;;;;;;5070625;28;20276;-66
2024/04/05 13:52:43;;;;;;;4.30;1.30;;;;;;;;;;5070528;28;20388;-66
2024/04/05 13:55:08;;;;;;;5.47;1.40;;;;;;;;;;5070353;28;20027;-65
2024/04/05 13:57:34;;;;;;;4.73;1.10;;;;;;;;;;5071110;28;20020;-65
2024/04/05 13:59:59;;;;;;;4.43;1.05;;;;;;;;;;5070617;28;20425;-65
2024/04/05 14:02:26;;;;;;;3.53;1.00;;;;;;;;;;5070581;28;20019;-65
2024/04/05 14:04:55;;;;;;;5.55;1.00;;;;;;;;;;5070171;28;20021;-66
2024/04/05 14:07:20;;;;;;;5.35;1.00;;;;;;;;;;5070669;28;20431;-67
2024/04/05 14:09:45;;;;;;;2.60;0.90;;;;;;;;;;5070611;28;20066;-66
2024/04/05 14:12:10;;;;;;;3.35;1.00;;;;;;;;;;4977848;28;20027;-65
2024/04/05 14:14:35;;;;;;;4.57;1.20;;;;;;;;;;4969271;28;20047;-65
2024/04/05 14:17:01;;;;;;;3.63;1.10;;;;;;;;;;4969169;28;20023;-66
2024/04/05 14:19:26;;;;;;;4.57;1.10;;;;;;;;;;4969867;28;20542;-64
2024/04/05 14:21:51;;;;;;;3.87;1.00;;;;;;;;;;4969293;28;20495;-64
2024/04/05 14:24:16;;;;;;;6.73;1.37;;;;;;;;;;4968728;28;20053;-65
2024/04/05 14:26:41;;;;;;;6.03;1.10;;;;;;;;;;4968766;28;20031;-65
2024/04/05 14:29:07;;;;;;;4.10;0.90;;;;;;;;;;4968985;28;20391;-65
2024/04/05 14:31:32;;;;;;;3.28;1.00;;;;;;;;;;4969037;28;20031;-65
2024/04/05 14:33:58;;;;;;;3.83;0.98;;;;;;;;;;4968999;28;20094;-65